KOGA/OGA METAR and TAF weather

Enter ICAO airport designator
Station Type Date Time Source
KOGA METAR 2019/10/15 03:55 UTC NOAA

KOGA 150355Z AUTO 02003KT 10SM CLR 07/M04 A2991 RMK AO2 T00711042


Station Type Date Time Source
KOGA Decoded METAR 2019/10/15 03:55 UTC NOAA

Ogallala, Searle Field Airport, NE, United States (KOGA) 41-07-11N 101-46-08W
Oct 14, 2019 - 11:55 PM EDT / 2019.10.15 0355 UTC
Wind: from the NNE (020 degrees) at 3 MPH (3 KT):0
Visibility: 10 mile(s):0
Sky conditions: clear
Temperature: 44.8 F (7.1 C)
Dew Point: 24.4 F (-4.2 C)
Relative Humidity: 44%
Pressure (altimeter): 29.91 in. Hg (1012 hPa)
ob: KOGA 150355Z AUTO 02003KT 10SM CLR 07/M04 A2991 RMK AO2 T00711042
cycle: 4

Station Type Date Time Source
KOGA TAF UTC NOAA

Error!

Example: see airport list